DLH1156 EDDF-LEPA
Flight info
| Callsign | DLH1156 |
|---|---|
| Flight time | 1h 57m |
| Altitude | 37000 |
| Route | ANEKI2L/18 ANEKI Y163 HERBI/N0437F370 Y164 MOPAN DCT LUTIX DCT BENOT DCT NEMOS DCT GEVEA DCT INCUS DCT BALSI DCT RETNO DCT TUPOX DCT MTG DCT DIVKO DCT VATIR DCT PIVUS N852 VERSO L129 LUNIK |
| Aircraft | A320/M-SDE2E3FGIJ1LORWXYZ/HB1 |
Departure
| Time | 2026-05-04 11:38 |
|---|---|
| Airport | Frankfurt Main Airport (EDDF) |
Arrival
| Time | 2026-05-04 13:35 |
|---|---|
| Airport | Palma de Mallorca Airport (LEPA) |
| Time | Latitude | Longitude | Altitude | Speed | Heading |
|---|---|---|---|---|---|
| 2026-05-04 11:02 | 50.04416 | 8.56275 | 356 ft | 0 kts | 162° |
| 2026-05-04 11:27 | 50.04422 | 8.56273 | 356 ft | 3 kts | 162° |
| 2026-05-04 11:28 | 50.04443 | 8.56262 | 362 ft | 3 kts | 162° |
| 2026-05-04 11:28 | 50.04462 | 8.56253 | 360 ft | 2 kts | 167° |
| 2026-05-04 11:28 | 50.04480 | 8.56251 | 356 ft | 3 kts | 218° |
| 2026-05-04 11:28 | 50.04489 | 8.56268 | 361 ft | 0 kts | 249° |
| 2026-05-04 11:29 | 50.04482 | 8.56238 | 356 ft | 3 kts | 249° |
| 2026-05-04 11:29 | 50.04474 | 8.56205 | 356 ft | 3 kts | 250° |
| 2026-05-04 11:29 | 50.04466 | 8.56172 | 358 ft | 3 kts | 250° |
| 2026-05-04 11:29 | 50.04458 | 8.56139 | 357 ft | 3 kts | 250° |
| 2026-05-04 11:31 | 50.04453 | 8.56119 | 359 ft | 0 kts | 250° |
| 2026-05-04 11:33 | 50.04261 | 8.56026 | 357 ft | 16 kts | 244° |
| 2026-05-04 11:33 | 50.04221 | 8.55860 | 359 ft | 17 kts | 250° |
| 2026-05-04 11:33 | 50.04175 | 8.55673 | 357 ft | 19 kts | 250° |
| 2026-05-04 11:34 | 50.04125 | 8.55465 | 351 ft | 22 kts | 250° |
| 2026-05-04 11:34 | 50.04072 | 8.55242 | 356 ft | 22 kts | 249° |
| 2026-05-04 11:34 | 50.04017 | 8.55011 | 356 ft | 24 kts | 250° |
| 2026-05-04 11:34 | 50.03961 | 8.54772 | 354 ft | 21 kts | 251° |
| 2026-05-04 11:35 | 50.03906 | 8.54548 | 356 ft | 23 kts | 249° |
| 2026-05-04 11:35 | 50.03843 | 8.54331 | 351 ft | 22 kts | 232° |
| 2026-05-04 11:35 | 50.03772 | 8.54107 | 347 ft | 24 kts | 250° |
| 2026-05-04 11:35 | 50.03713 | 8.53859 | 346 ft | 24 kts | 249° |
| 2026-05-04 11:36 | 50.03655 | 8.53621 | 341 ft | 24 kts | 249° |
| 2026-05-04 11:36 | 50.03595 | 8.53379 | 337 ft | 24 kts | 250° |
| 2026-05-04 11:36 | 50.03535 | 8.53131 | 337 ft | 25 kts | 250° |
| 2026-05-04 11:36 | 50.03480 | 8.52902 | 335 ft | 21 kts | 247° |
| 2026-05-04 11:37 | 50.03427 | 8.52703 | 333 ft | 18 kts | 249° |
| 2026-05-04 11:37 | 50.03384 | 8.52594 | 334 ft | 9 kts | 199° |
| 2026-05-04 11:37 | 50.03358 | 8.52593 | 335 ft | 0 kts | 178° |
| 2026-05-04 11:37 | 50.03313 | 8.52594 | 335 ft | 34 kts | 180° |
| 2026-05-04 11:38 | 50.02800 | 8.52599 | 335 ft | 106 kts | 180° |
| 2026-05-04 11:38 | 50.01881 | 8.52607 | 335 ft | 159 kts | 179° |
| 2026-05-04 11:38 | 50.00680 | 8.52632 | 676 ft | 176 kts | 179° |
| 2026-05-04 11:38 | 49.99448 | 8.52665 | 1425 ft | 176 kts | 181° |
| 2026-05-04 11:39 | 49.98192 | 8.52740 | 1997 ft | 189 kts | 178° |
| 2026-05-04 11:39 | 49.96801 | 8.52840 | 2328 ft | 210 kts | 179° |
| 2026-05-04 11:40 | 49.87294 | 8.53522 | 6676 ft | 238 kts | 180° |
| 2026-05-04 11:41 | 49.85633 | 8.53639 | 7418 ft | 240 kts | 180° |
| 2026-05-04 11:41 | 49.83964 | 8.53757 | 8180 ft | 240 kts | 179° |
| 2026-05-04 11:41 | 49.82293 | 8.53874 | 8995 ft | 241 kts | 179° |
| 2026-05-04 11:41 | 49.80620 | 8.53990 | 9797 ft | 241 kts | 179° |
| 2026-05-04 11:42 | 49.78937 | 8.54108 | 10522 ft | 243 kts | 179° |
| 2026-05-04 11:42 | 49.77236 | 8.54051 | 11123 ft | 252 kts | 186° |
| 2026-05-04 11:42 | 49.75405 | 8.53811 | 11393 ft | 276 kts | 186° |
| 2026-05-04 11:42 | 49.73410 | 8.53540 | 11630 ft | 299 kts | 186° |
| 2026-05-04 11:43 | 49.71267 | 8.53249 | 11966 ft | 317 kts | 186° |
| 2026-05-04 11:43 | 49.69040 | 8.52949 | 12610 ft | 324 kts | 186° |
| 2026-05-04 11:43 | 49.66779 | 8.52647 | 13337 ft | 328 kts | 185° |
| 2026-05-04 11:43 | 49.64493 | 8.52345 | 14039 ft | 332 kts | 186° |
| 2026-05-04 11:44 | 49.62178 | 8.52038 | 14715 ft | 335 kts | 186° |
| 2026-05-04 11:44 | 49.59846 | 8.51728 | 15379 ft | 337 kts | 186° |
| 2026-05-04 11:44 | 49.57500 | 8.51421 | 16045 ft | 340 kts | 186° |
| 2026-05-04 11:44 | 49.55131 | 8.51113 | 16698 ft | 343 kts | 186° |
| 2026-05-04 11:45 | 49.52743 | 8.50803 | 17355 ft | 346 kts | 186° |
| 2026-05-04 11:45 | 49.50335 | 8.50486 | 18014 ft | 348 kts | 186° |
| 2026-05-04 11:45 | 49.47911 | 8.50160 | 18612 ft | 351 kts | 186° |
| 2026-05-04 11:45 | 49.45466 | 8.49835 | 19167 ft | 354 kts | 186° |
| 2026-05-04 11:46 | 49.43011 | 8.49512 | 19727 ft | 356 kts | 186° |
| 2026-05-04 11:46 | 49.40527 | 8.49190 | 20292 ft | 359 kts | 186° |
| 2026-05-04 11:46 | 49.38029 | 8.48868 | 20856 ft | 361 kts | 186° |
| 2026-05-04 11:46 | 49.35517 | 8.48545 | 21414 ft | 364 kts | 186° |
| 2026-05-04 11:47 | 49.32983 | 8.48220 | 21970 ft | 367 kts | 186° |
| 2026-05-04 11:47 | 49.30429 | 8.47895 | 22523 ft | 369 kts | 186° |
| 2026-05-04 11:47 | 49.27861 | 8.47567 | 23072 ft | 372 kts | 186° |
| 2026-05-04 11:47 | 49.25311 | 8.47235 | 23595 ft | 375 kts | 186° |
| 2026-05-04 11:48 | 49.22667 | 8.46886 | 24045 ft | 377 kts | 187° |
| 2026-05-04 11:48 | 49.20044 | 8.46540 | 24486 ft | 379 kts | 186° |
| 2026-05-04 11:48 | 49.17403 | 8.46195 | 24919 ft | 381 kts | 186° |
| 2026-05-04 11:48 | 49.14756 | 8.45849 | 25336 ft | 383 kts | 187° |
| 2026-05-04 11:49 | 49.12088 | 8.45500 | 25749 ft | 386 kts | 187° |
| 2026-05-04 11:49 | 49.09410 | 8.45153 | 26151 ft | 388 kts | 187° |
| 2026-05-04 11:49 | 49.06716 | 8.44780 | 26544 ft | 389 kts | 189° |
| 2026-05-04 11:49 | 49.04058 | 8.43968 | 26937 ft | 390 kts | 194° |
| 2026-05-04 11:50 | 49.01408 | 8.43040 | 27301 ft | 392 kts | 194° |
| 2026-05-04 11:50 | 48.98738 | 8.42110 | 27679 ft | 394 kts | 194° |
| 2026-05-04 11:50 | 48.96061 | 8.41180 | 28075 ft | 396 kts | 195° |
| 2026-05-04 11:50 | 48.93365 | 8.40241 | 28469 ft | 398 kts | 195° |
| 2026-05-04 11:51 | 48.90694 | 8.39311 | 28839 ft | 400 kts | 195° |
| 2026-05-04 11:51 | 48.87973 | 8.38366 | 29192 ft | 402 kts | 195° |
| 2026-05-04 11:51 | 48.85205 | 8.37403 | 29539 ft | 404 kts | 195° |
| 2026-05-04 11:51 | 48.82485 | 8.36459 | 29880 ft | 407 kts | 195° |
| 2026-05-04 11:52 | 48.79684 | 8.35491 | 30194 ft | 408 kts | 195° |
| 2026-05-04 11:52 | 48.76909 | 8.34525 | 30473 ft | 410 kts | 195° |
| 2026-05-04 11:52 | 48.74168 | 8.33538 | 30747 ft | 411 kts | 196° |
| 2026-05-04 11:52 | 48.71386 | 8.32516 | 30993 ft | 413 kts | 196° |
| 2026-05-04 11:53 | 48.68591 | 8.31480 | 31248 ft | 414 kts | 197° |
| 2026-05-04 11:53 | 48.65794 | 8.30444 | 31524 ft | 414 kts | 196° |
| 2026-05-04 11:53 | 48.62995 | 8.29414 | 31878 ft | 413 kts | 196° |
| 2026-05-04 11:53 | 48.60204 | 8.28394 | 32230 ft | 412 kts | 196° |
| 2026-05-04 11:55 | 48.40900 | 8.21383 | 34570 ft | 405 kts | 197° |
| 2026-05-04 11:55 | 48.38169 | 8.20381 | 34806 ft | 405 kts | 197° |
| 2026-05-04 11:56 | 48.35426 | 8.19377 | 35043 ft | 405 kts | 196° |
| 2026-05-04 11:56 | 48.32687 | 8.18379 | 35231 ft | 406 kts | 196° |
| 2026-05-04 11:56 | 48.29938 | 8.17379 | 35453 ft | 406 kts | 196° |
| 2026-05-04 11:56 | 48.27188 | 8.16379 | 35688 ft | 407 kts | 196° |
| 2026-05-04 11:57 | 48.24479 | 8.15202 | 35891 ft | 405 kts | 203° |
| 2026-05-04 11:57 | 48.21929 | 8.13461 | 36101 ft | 403 kts | 208° |
| 2026-05-04 11:57 | 48.19412 | 8.11592 | 36313 ft | 403 kts | 208° |
| 2026-05-04 11:57 | 48.16900 | 8.09727 | 36528 ft | 403 kts | 208° |
| 2026-05-04 11:58 | 48.14383 | 8.07864 | 36719 ft | 403 kts | 208° |
| 2026-05-04 11:58 | 48.11863 | 8.06005 | 36909 ft | 404 kts | 208° |
| 2026-05-04 11:58 | 48.09342 | 8.04149 | 37002 ft | 403 kts | 208° |
| 2026-05-04 11:59 | 48.04322 | 8.00453 | 37017 ft | 401 kts | 208° |
| 2026-05-04 11:59 | 47.99317 | 7.96767 | 37012 ft | 401 kts | 208° |
| 2026-05-04 12:00 | 47.94309 | 7.93095 | 37005 ft | 401 kts | 207° |
| 2026-05-04 12:00 | 47.89297 | 7.89437 | 37016 ft | 401 kts | 207° |
| 2026-05-04 12:01 | 47.85130 | 7.86397 | 37021 ft | 402 kts | 207° |
| 2026-05-04 12:02 | 47.67542 | 7.73605 | 37020 ft | 402 kts | 207° |
| 2026-05-04 12:03 | 47.62512 | 7.69964 | 37027 ft | 403 kts | 207° |
| 2026-05-04 12:03 | 47.57471 | 7.66337 | 37031 ft | 402 kts | 207° |
| 2026-05-04 12:04 | 47.52441 | 7.62726 | 37019 ft | 402 kts | 207° |
| 2026-05-04 12:04 | 47.47410 | 7.59102 | 37020 ft | 402 kts | 207° |
| 2026-05-04 12:05 | 47.42374 | 7.55480 | 37015 ft | 402 kts | 207° |
| 2026-05-04 12:05 | 47.37342 | 7.51877 | 37007 ft | 402 kts | 207° |
| 2026-05-04 12:06 | 47.32336 | 7.48305 | 36993 ft | 402 kts | 207° |
| 2026-05-04 12:06 | 47.27303 | 7.44721 | 37016 ft | 402 kts | 207° |
| 2026-05-04 12:07 | 47.22267 | 7.41147 | 37013 ft | 401 kts | 207° |
| 2026-05-04 12:07 | 47.17363 | 7.37273 | 37014 ft | 400 kts | 217° |
| 2026-05-04 12:08 | 47.13503 | 7.31519 | 37011 ft | 399 kts | 231° |
| 2026-05-04 12:08 | 47.10064 | 7.25141 | 37006 ft | 398 kts | 231° |
| 2026-05-04 12:09 | 47.06608 | 7.18798 | 37006 ft | 398 kts | 231° |
| 2026-05-04 12:09 | 47.03145 | 7.12455 | 37030 ft | 398 kts | 231° |
| 2026-05-04 12:10 | 46.99676 | 7.06090 | 36993 ft | 402 kts | 231° |
| 2026-05-04 12:10 | 46.96166 | 6.99693 | 36987 ft | 405 kts | 231° |
| 2026-05-04 12:11 | 46.92627 | 6.93258 | 37018 ft | 407 kts | 231° |
| 2026-05-04 12:11 | 46.88572 | 6.87506 | 37016 ft | 407 kts | 219° |
| 2026-05-04 12:12 | 46.84208 | 6.82309 | 37013 ft | 408 kts | 219° |
| 2026-05-04 12:12 | 46.79806 | 6.77076 | 37015 ft | 409 kts | 219° |
| 2026-05-04 12:14 | 46.62100 | 6.56112 | 37041 ft | 414 kts | 219° |
| 2026-05-04 12:15 | 46.57614 | 6.50836 | 37041 ft | 415 kts | 219° |
| 2026-05-04 12:15 | 46.53121 | 6.45559 | 37072 ft | 415 kts | 219° |
| 2026-05-04 12:16 | 46.48651 | 6.40313 | 37046 ft | 413 kts | 219° |
| 2026-05-04 12:16 | 46.44182 | 6.35086 | 37050 ft | 413 kts | 219° |
| 2026-05-04 12:17 | 46.39708 | 6.29866 | 37075 ft | 413 kts | 219° |
| 2026-05-04 12:17 | 46.35237 | 6.24650 | 37081 ft | 413 kts | 219° |
| 2026-05-04 12:18 | 46.30792 | 6.19483 | 37091 ft | 412 kts | 219° |
| 2026-05-04 12:18 | 46.26130 | 6.14581 | 37093 ft | 414 kts | 208° |
| 2026-05-04 12:19 | 46.20625 | 6.12147 | 37093 ft | 418 kts | 191° |
| 2026-05-04 12:19 | 46.14914 | 6.10894 | 37089 ft | 418 kts | 192° |
| 2026-05-04 12:20 | 46.09166 | 6.09631 | 37084 ft | 418 kts | 192° |
| 2026-05-04 12:20 | 46.03414 | 6.08356 | 37090 ft | 418 kts | 192° |
| 2026-05-04 12:21 | 45.97659 | 6.07087 | 37085 ft | 418 kts | 192° |
| 2026-05-04 12:21 | 45.91911 | 6.05814 | 37094 ft | 418 kts | 192° |
| 2026-05-04 12:22 | 45.86166 | 6.04547 | 37097 ft | 417 kts | 192° |
| 2026-05-04 12:22 | 45.80423 | 6.03280 | 37086 ft | 417 kts | 192° |
| 2026-05-04 12:23 | 45.74682 | 6.02012 | 37089 ft | 417 kts | 192° |
| 2026-05-04 12:23 | 45.68946 | 6.00740 | 37096 ft | 417 kts | 192° |
| 2026-05-04 12:24 | 45.63207 | 5.99467 | 37098 ft | 417 kts | 192° |
| 2026-05-04 12:24 | 45.57471 | 5.98215 | 37093 ft | 417 kts | 192° |
| 2026-05-04 12:25 | 45.51766 | 5.96971 | 37090 ft | 417 kts | 192° |
| 2026-05-04 12:25 | 45.46038 | 5.95673 | 37077 ft | 416 kts | 194° |
| 2026-05-04 12:26 | 45.40386 | 5.93955 | 37077 ft | 415 kts | 197° |
| 2026-05-04 12:26 | 45.34759 | 5.92070 | 37075 ft | 415 kts | 197° |
| 2026-05-04 12:27 | 45.29086 | 5.90238 | 37066 ft | 416 kts | 196° |
| 2026-05-04 12:27 | 45.23466 | 5.88496 | 37073 ft | 416 kts | 196° |
| 2026-05-04 12:28 | 45.17807 | 5.86758 | 37072 ft | 416 kts | 196° |
| 2026-05-04 12:28 | 45.12164 | 5.85015 | 37073 ft | 415 kts | 196° |
| 2026-05-04 12:29 | 45.06522 | 5.83279 | 37075 ft | 414 kts | 196° |
| 2026-05-04 12:29 | 45.00896 | 5.81541 | 37041 ft | 414 kts | 197° |
| 2026-05-04 12:30 | 44.95271 | 5.79805 | 37047 ft | 414 kts | 197° |
| 2026-05-04 12:30 | 44.89698 | 5.78083 | 37049 ft | 413 kts | 196° |
| 2026-05-04 12:31 | 44.84037 | 5.76346 | 37040 ft | 413 kts | 197° |
| 2026-05-04 12:31 | 44.78426 | 5.74633 | 37048 ft | 413 kts | 197° |
| 2026-05-04 12:32 | 44.70000 | 5.72060 | 37059 ft | 413 kts | 197° |
| 2026-05-04 12:33 | 44.64391 | 5.70344 | 37081 ft | 412 kts | 197° |
| 2026-05-04 12:33 | 44.58787 | 5.68643 | 37077 ft | 412 kts | 197° |
| 2026-05-04 12:34 | 44.53184 | 5.66950 | 37078 ft | 412 kts | 197° |
| 2026-05-04 12:34 | 44.47622 | 5.65266 | 37073 ft | 411 kts | 197° |
| 2026-05-04 12:35 | 44.42033 | 5.63572 | 37064 ft | 411 kts | 197° |
| 2026-05-04 12:35 | 44.36524 | 5.61556 | 37057 ft | 406 kts | 205° |
| 2026-05-04 12:36 | 44.31276 | 5.58654 | 37059 ft | 406 kts | 205° |
| 2026-05-04 12:36 | 44.26022 | 5.55774 | 37053 ft | 405 kts | 205° |
| 2026-05-04 12:37 | 44.20768 | 5.52915 | 37061 ft | 405 kts | 205° |
| 2026-05-04 12:37 | 44.15522 | 5.50062 | 37064 ft | 404 kts | 205° |
| 2026-05-04 12:38 | 44.10283 | 5.47207 | 37052 ft | 404 kts | 205° |
| 2026-05-04 12:38 | 44.05043 | 5.44359 | 37038 ft | 404 kts | 206° |
| 2026-05-04 12:39 | 43.99804 | 5.41518 | 37042 ft | 404 kts | 206° |
| 2026-05-04 12:39 | 43.94565 | 5.38681 | 37042 ft | 404 kts | 206° |
| 2026-05-04 12:40 | 43.89329 | 5.35848 | 37034 ft | 404 kts | 206° |
| 2026-05-04 12:40 | 43.84090 | 5.33017 | 37057 ft | 403 kts | 205° |
| 2026-05-04 12:41 | 43.78865 | 5.30203 | 37051 ft | 403 kts | 206° |
| 2026-05-04 12:41 | 43.73646 | 5.27395 | 37049 ft | 402 kts | 206° |
| 2026-05-04 12:42 | 43.68439 | 5.24595 | 37040 ft | 401 kts | 206° |
| 2026-05-04 12:42 | 43.63270 | 5.21831 | 37044 ft | 400 kts | 206° |
| 2026-05-04 12:43 | 43.58081 | 5.19057 | 37045 ft | 400 kts | 206° |
| 2026-05-04 12:43 | 43.52899 | 5.16283 | 37050 ft | 400 kts | 206° |
| 2026-05-04 12:44 | 43.47716 | 5.13515 | 37046 ft | 399 kts | 206° |
| 2026-05-04 12:44 | 43.42528 | 5.10760 | 37046 ft | 399 kts | 206° |
| 2026-05-04 12:45 | 43.37510 | 5.07639 | 37036 ft | 392 kts | 217° |
| 2026-05-04 12:45 | 43.33141 | 5.03511 | 37040 ft | 392 kts | 218° |
| 2026-05-04 12:46 | 43.28898 | 4.99502 | 37022 ft | 391 kts | 218° |
| 2026-05-04 12:46 | 43.25039 | 4.95870 | 37027 ft | 391 kts | 218° |
| 2026-05-04 12:47 | 43.21231 | 4.92300 | 37034 ft | 392 kts | 217° |
| 2026-05-04 12:47 | 43.17989 | 4.89260 | 37029 ft | 392 kts | 217° |
| 2026-05-04 12:48 | 43.14867 | 4.86332 | 37018 ft | 392 kts | 217° |
| 2026-05-04 12:48 | 43.12270 | 4.83901 | 36989 ft | 392 kts | 217° |
| 2026-05-04 12:49 | 43.10371 | 4.82130 | 36999 ft | 392 kts | 217° |
| 2026-05-04 12:49 | 43.06994 | 4.78986 | 37010 ft | 392 kts | 217° |
| 2026-05-04 12:50 | 43.02941 | 4.75662 | 37011 ft | 394 kts | 213° |
| 2026-05-04 12:50 | 42.98511 | 4.72306 | 37004 ft | 394 kts | 213° |
| 2026-05-04 12:51 | 42.93741 | 4.68688 | 37005 ft | 394 kts | 213° |
| 2026-05-04 12:51 | 42.88988 | 4.65083 | 36998 ft | 393 kts | 213° |
| 2026-05-04 12:52 | 42.84214 | 4.61475 | 37002 ft | 393 kts | 213° |
| 2026-05-04 12:52 | 42.80231 | 4.58477 | 37004 ft | 393 kts | 213° |
| 2026-05-04 12:53 | 42.75477 | 4.54907 | 37012 ft | 393 kts | 212° |
| 2026-05-04 12:53 | 42.70894 | 4.51460 | 37004 ft | 393 kts | 212° |
| 2026-05-04 12:54 | 42.66105 | 4.47870 | 36997 ft | 393 kts | 212° |
| 2026-05-04 12:54 | 42.61318 | 4.44284 | 36994 ft | 393 kts | 212° |
| 2026-05-04 12:55 | 42.56527 | 4.40702 | 36986 ft | 393 kts | 212° |
| 2026-05-04 12:55 | 42.51737 | 4.37126 | 36968 ft | 393 kts | 213° |
| 2026-05-04 12:56 | 42.46957 | 4.33561 | 36987 ft | 392 kts | 213° |
| 2026-05-04 12:56 | 42.42187 | 4.30018 | 36991 ft | 391 kts | 213° |
| 2026-05-04 12:57 | 42.37424 | 4.26478 | 36984 ft | 390 kts | 213° |
| 2026-05-04 12:57 | 42.32696 | 4.22976 | 36959 ft | 390 kts | 213° |
| 2026-05-04 12:58 | 42.27936 | 4.19469 | 36968 ft | 389 kts | 213° |
| 2026-05-04 12:58 | 42.23187 | 4.15963 | 36982 ft | 389 kts | 212° |
| 2026-05-04 12:59 | 42.18438 | 4.12461 | 36979 ft | 389 kts | 212° |
| 2026-05-04 12:59 | 42.13695 | 4.08970 | 36972 ft | 388 kts | 212° |
| 2026-05-04 13:00 | 42.08952 | 4.05482 | 36953 ft | 388 kts | 212° |
| 2026-05-04 13:00 | 42.04209 | 4.02005 | 36962 ft | 388 kts | 212° |
| 2026-05-04 13:01 | 41.99464 | 3.98534 | 36965 ft | 388 kts | 212° |
| 2026-05-04 13:01 | 41.94715 | 3.95072 | 36959 ft | 388 kts | 212° |
| 2026-05-04 13:02 | 41.89571 | 3.92696 | 36934 ft | 399 kts | 196° |
| 2026-05-04 13:02 | 41.84091 | 3.91438 | 36944 ft | 400 kts | 196° |
| 2026-05-04 13:03 | 41.78607 | 3.90185 | 36951 ft | 400 kts | 196° |
| 2026-05-04 13:03 | 41.73124 | 3.88924 | 36954 ft | 400 kts | 196° |
| 2026-05-04 13:04 | 41.67636 | 3.87660 | 36943 ft | 400 kts | 196° |
| 2026-05-04 13:04 | 41.62146 | 3.86399 | 36949 ft | 400 kts | 196° |
| 2026-05-04 13:05 | 41.56657 | 3.85142 | 36962 ft | 400 kts | 196° |
| 2026-05-04 13:05 | 41.51200 | 3.83891 | 36962 ft | 401 kts | 196° |
| 2026-05-04 13:06 | 41.45709 | 3.82631 | 36946 ft | 400 kts | 196° |
| 2026-05-04 13:06 | 41.40182 | 3.81367 | 36960 ft | 400 kts | 196° |
| 2026-05-04 13:07 | 41.34732 | 3.80122 | 36986 ft | 400 kts | 196° |
| 2026-05-04 13:07 | 41.29256 | 3.78876 | 36981 ft | 399 kts | 196° |
| 2026-05-04 13:08 | 41.23779 | 3.77631 | 36972 ft | 399 kts | 196° |
| 2026-05-04 13:08 | 41.18313 | 3.76388 | 36977 ft | 398 kts | 196° |
| 2026-05-04 13:09 | 41.13026 | 3.74538 | 36981 ft | 390 kts | 206° |
| 2026-05-04 13:09 | 41.07974 | 3.71923 | 36979 ft | 390 kts | 206° |
| 2026-05-04 13:10 | 41.02929 | 3.69320 | 36960 ft | 384 kts | 206° |
| 2026-05-04 13:10 | 40.98032 | 3.66815 | 36883 ft | 375 kts | 206° |
| 2026-05-04 13:10 | 40.95574 | 3.65549 | 35813 ft | 385 kts | 206° |
| 2026-05-04 13:11 | 40.93086 | 3.64267 | 35319 ft | 379 kts | 206° |
| 2026-05-04 13:11 | 40.90664 | 3.63027 | 35032 ft | 369 kts | 206° |
| 2026-05-04 13:11 | 40.88287 | 3.61811 | 34582 ft | 364 kts | 206° |
| 2026-05-04 13:11 | 40.85942 | 3.60610 | 34157 ft | 359 kts | 206° |
| 2026-05-04 13:12 | 40.83628 | 3.59425 | 33689 ft | 354 kts | 206° |
| 2026-05-04 13:12 | 40.81355 | 3.58261 | 33266 ft | 348 kts | 206° |
| 2026-05-04 13:12 | 40.79113 | 3.57113 | 32846 ft | 343 kts | 206° |
| 2026-05-04 13:12 | 40.76907 | 3.55988 | 32438 ft | 338 kts | 206° |
| 2026-05-04 13:13 | 40.74735 | 3.54879 | 32026 ft | 333 kts | 206° |
| 2026-05-04 13:13 | 40.72584 | 3.53779 | 31635 ft | 329 kts | 206° |
| 2026-05-04 13:13 | 40.70494 | 3.52710 | 31252 ft | 325 kts | 206° |
| 2026-05-04 13:13 | 40.68399 | 3.51642 | 30876 ft | 321 kts | 206° |
| 2026-05-04 13:14 | 40.66321 | 3.50588 | 30500 ft | 318 kts | 206° |
| 2026-05-04 13:14 | 40.64243 | 3.49535 | 30134 ft | 314 kts | 206° |
| 2026-05-04 13:14 | 40.62243 | 3.48522 | 29746 ft | 310 kts | 206° |
| 2026-05-04 13:14 | 40.60243 | 3.47511 | 29387 ft | 306 kts | 206° |
| 2026-05-04 13:15 | 40.58261 | 3.46505 | 29048 ft | 304 kts | 206° |
| 2026-05-04 13:15 | 40.56290 | 3.45502 | 28707 ft | 304 kts | 206° |
| 2026-05-04 13:15 | 40.54321 | 3.44502 | 28373 ft | 303 kts | 206° |
| 2026-05-04 13:15 | 40.52358 | 3.43508 | 28035 ft | 302 kts | 206° |
| 2026-05-04 13:16 | 40.50400 | 3.42516 | 27701 ft | 301 kts | 206° |
| 2026-05-04 13:16 | 40.48450 | 3.41526 | 27363 ft | 300 kts | 206° |
| 2026-05-04 13:16 | 40.46502 | 3.40540 | 26957 ft | 299 kts | 206° |
| 2026-05-04 13:16 | 40.44514 | 3.39699 | 26564 ft | 303 kts | 198° |
| 2026-05-04 13:17 | 40.42407 | 3.39368 | 26133 ft | 309 kts | 188° |
| 2026-05-04 13:17 | 40.40249 | 3.39474 | 25729 ft | 310 kts | 185° |
| 2026-05-04 13:17 | 40.38100 | 3.39607 | 25309 ft | 309 kts | 185° |
| 2026-05-04 13:17 | 40.35953 | 3.39733 | 24866 ft | 309 kts | 185° |
| 2026-05-04 13:18 | 40.33805 | 3.39853 | 24429 ft | 309 kts | 185° |
| 2026-05-04 13:18 | 40.31652 | 3.39970 | 23985 ft | 310 kts | 185° |
| 2026-05-04 13:18 | 40.29493 | 3.40085 | 23535 ft | 311 kts | 185° |
| 2026-05-04 13:18 | 40.27324 | 3.40205 | 23031 ft | 312 kts | 184° |
| 2026-05-04 13:19 | 40.25159 | 3.40331 | 22588 ft | 311 kts | 184° |
| 2026-05-04 13:19 | 40.22997 | 3.40456 | 22143 ft | 310 kts | 184° |
| 2026-05-04 13:19 | 40.20844 | 3.40577 | 21714 ft | 309 kts | 184° |
| 2026-05-04 13:19 | 40.18696 | 3.40698 | 21268 ft | 308 kts | 185° |
| 2026-05-04 13:20 | 40.16555 | 3.40819 | 20871 ft | 307 kts | 185° |
| 2026-05-04 13:20 | 40.14420 | 3.40939 | 20446 ft | 307 kts | 184° |
| 2026-05-04 13:20 | 40.12284 | 3.41058 | 20029 ft | 307 kts | 184° |
| 2026-05-04 13:20 | 40.10146 | 3.41178 | 19610 ft | 307 kts | 184° |
| 2026-05-04 13:21 | 40.08008 | 3.41301 | 19197 ft | 308 kts | 183° |
| 2026-05-04 13:21 | 40.05896 | 3.41422 | 18792 ft | 308 kts | 183° |
| 2026-05-04 13:21 | 40.03751 | 3.41541 | 18379 ft | 309 kts | 183° |
| 2026-05-04 13:21 | 40.01605 | 3.41660 | 17950 ft | 309 kts | 182° |
| 2026-05-04 13:22 | 39.99457 | 3.41779 | 17535 ft | 308 kts | 182° |
| 2026-05-04 13:22 | 39.97321 | 3.41898 | 17123 ft | 307 kts | 183° |
| 2026-05-04 13:22 | 39.95193 | 3.42021 | 16734 ft | 306 kts | 182° |
| 2026-05-04 13:22 | 39.93070 | 3.42145 | 16344 ft | 305 kts | 182° |
| 2026-05-04 13:23 | 39.90951 | 3.42267 | 15952 ft | 304 kts | 182° |
| 2026-05-04 13:23 | 39.88837 | 3.42384 | 15564 ft | 304 kts | 182° |
| 2026-05-04 13:23 | 39.86727 | 3.42498 | 15177 ft | 304 kts | 182° |
| 2026-05-04 13:23 | 39.84614 | 3.42612 | 14786 ft | 303 kts | 182° |
| 2026-05-04 13:24 | 39.82505 | 3.42729 | 14397 ft | 303 kts | 181° |
| 2026-05-04 13:24 | 39.80408 | 3.42848 | 14066 ft | 301 kts | 181° |
| 2026-05-04 13:24 | 39.78318 | 3.42967 | 13747 ft | 299 kts | 181° |
| 2026-05-04 13:25 | 39.74174 | 3.43176 | 12874 ft | 297 kts | 186° |
| 2026-05-04 13:25 | 39.72233 | 3.42548 | 12560 ft | 285 kts | 210° |
| 2026-05-04 13:25 | 39.70742 | 3.40884 | 12045 ft | 285 kts | 236° |
| 2026-05-04 13:25 | 39.70016 | 3.38508 | 11625 ft | 287 kts | 260° |
| 2026-05-04 13:26 | 39.70012 | 3.35912 | 11238 ft | 288 kts | 269° |
| 2026-05-04 13:26 | 39.70101 | 3.33310 | 10832 ft | 288 kts | 269° |
| 2026-05-04 13:26 | 39.70192 | 3.30722 | 10424 ft | 285 kts | 269° |
| 2026-05-04 13:26 | 39.70279 | 3.28199 | 10016 ft | 274 kts | 269° |
| 2026-05-04 13:27 | 39.70360 | 3.25772 | 9587 ft | 264 kts | 269° |
| 2026-05-04 13:27 | 39.70436 | 3.23437 | 9200 ft | 254 kts | 268° |
| 2026-05-04 13:27 | 39.70507 | 3.21192 | 8817 ft | 243 kts | 268° |
| 2026-05-04 13:27 | 39.70576 | 3.19046 | 8457 ft | 232 kts | 268° |
| 2026-05-04 13:28 | 39.70640 | 3.16971 | 8103 ft | 231 kts | 268° |
| 2026-05-04 13:28 | 39.70699 | 3.14882 | 7738 ft | 233 kts | 268° |
| 2026-05-04 13:28 | 39.70758 | 3.12775 | 7365 ft | 233 kts | 268° |
| 2026-05-04 13:28 | 39.70818 | 3.10666 | 6979 ft | 235 kts | 268° |
| 2026-05-04 13:29 | 39.70653 | 3.08580 | 6585 ft | 231 kts | 250° |
| 2026-05-04 13:29 | 39.69928 | 3.06741 | 6211 ft | 229 kts | 237° |
| 2026-05-04 13:29 | 39.69104 | 3.05003 | 5829 ft | 222 kts | 237° |
| 2026-05-04 13:29 | 39.68313 | 3.03322 | 5460 ft | 214 kts | 238° |
| 2026-05-04 13:30 | 39.67555 | 3.01708 | 5025 ft | 209 kts | 237° |
| 2026-05-04 13:30 | 39.66808 | 3.00114 | 4611 ft | 205 kts | 238° |
| 2026-05-04 13:30 | 39.66074 | 2.98548 | 4180 ft | 201 kts | 238° |
| 2026-05-04 13:30 | 39.65355 | 2.97010 | 3757 ft | 198 kts | 240° |
| 2026-05-04 13:31 | 39.64646 | 2.95498 | 3421 ft | 193 kts | 237° |
| 2026-05-04 13:31 | 39.63948 | 2.94024 | 3155 ft | 189 kts | 238° |
| 2026-05-04 13:31 | 39.63285 | 2.92614 | 2932 ft | 175 kts | 239° |
| 2026-05-04 13:31 | 39.62674 | 2.91310 | 2690 ft | 166 kts | 241° |
| 2026-05-04 13:32 | 39.62086 | 2.90060 | 2470 ft | 157 kts | 237° |
| 2026-05-04 13:32 | 39.61516 | 2.88851 | 2287 ft | 160 kts | 239° |
| 2026-05-04 13:32 | 39.60938 | 2.87621 | 2056 ft | 156 kts | 237° |
| 2026-05-04 13:32 | 39.60382 | 2.86439 | 1853 ft | 149 kts | 237° |
| 2026-05-04 13:33 | 39.59842 | 2.85293 | 1652 ft | 148 kts | 238° |
| 2026-05-04 13:33 | 39.59311 | 2.84164 | 1447 ft | 141 kts | 238° |
| 2026-05-04 13:33 | 39.58809 | 2.83102 | 1271 ft | 137 kts | 239° |
| 2026-05-04 13:33 | 39.58321 | 2.82063 | 1107 ft | 135 kts | 238° |
| 2026-05-04 13:34 | 39.57826 | 2.81015 | 929 ft | 135 kts | 238° |
| 2026-05-04 13:34 | 39.57339 | 2.80005 | 765 ft | 129 kts | 239° |
| 2026-05-04 13:34 | 39.56879 | 2.79010 | 495 ft | 128 kts | 237° |
| 2026-05-04 13:34 | 39.56433 | 2.78046 | 344 ft | 124 kts | 237° |
| 2026-05-04 13:35 | 39.55979 | 2.77094 | 242 ft | 125 kts | 237° |
| 2026-05-04 13:35 | 39.55094 | 2.75211 | 39 ft | 102 kts | 234° |
| 2026-05-04 13:35 | 39.54873 | 2.74751 | 38 ft | 29 kts | 239° |
| 2026-05-04 13:36 | 39.54817 | 2.74532 | 38 ft | 19 kts | 257° |
| 2026-05-04 13:36 | 39.54807 | 2.74419 | 38 ft | 10 kts | 266° |
| 2026-05-04 13:36 | 39.54804 | 2.74317 | 38 ft | 13 kts | 268° |
| 2026-05-04 13:36 | 39.54799 | 2.74192 | 38 ft | 15 kts | 261° |
| 2026-05-04 13:37 | 39.54758 | 2.74059 | 38 ft | 17 kts | 240° |
| 2026-05-04 13:37 | 39.54692 | 2.73923 | 38 ft | 18 kts | 237° |
| 2026-05-04 13:37 | 39.54642 | 2.73816 | 37 ft | 14 kts | 239° |
| 2026-05-04 13:37 | 39.54609 | 2.73746 | 38 ft | 11 kts | 238° |
| 2026-05-04 13:38 | 39.54595 | 2.73645 | 38 ft | 10 kts | 303° |
| 2026-05-04 13:38 | 39.54623 | 2.73575 | 36 ft | 9 kts | 287° |
| 2026-05-04 13:38 | 39.54662 | 2.73525 | 38 ft | 8 kts | 327° |
| 2026-05-04 13:38 | 39.54705 | 2.73491 | 38 ft | 7 kts | 329° |
| 2026-05-04 13:39 | 39.54718 | 2.73456 | 38 ft | 4 kts | 263° |
| 2026-05-04 13:39 | 39.54708 | 2.73418 | 38 ft | 6 kts | 242° |
| 2026-05-04 13:39 | 39.54700 | 2.73402 | 38 ft | 2 kts | 239° |
| 2026-05-04 13:39 | 39.54696 | 2.73393 | 38 ft | 0 kts | 239° |